sensor_id;sensor_type;location;lat;lon;timestamp;pressure;altitude;pressure_sealevel;temperature;humidity
3142;BME280;1581;51.568;6.998;2023-09-07T00:01:20;101281.19;;;20.67;100.00
3142;BME280;1581;51.568;6.998;2023-09-07T00:03:48;101270.81;;;20.64;100.00
3142;BME280;1581;51.568;6.998;2023-09-07T00:06:16;101273.19;;;20.60;100.00
3142;BME280;1581;51.568;6.998;2023-09-07T00:08:44;101280.50;;;20.60;100.00
3142;BME280;1581;51.568;6.998;2023-09-07T00:11:12;101269.66;;;20.60;100.00
3142;BME280;1581;51.568;6.998;2023-09-07T00:13:40;101272.03;;;20.56;100.00
3142;BME280;1581;51.568;6.998;2023-09-07T00:16:09;101266.84;;;20.55;100.00
3142;BME280;1581;51.568;6.998;2023-09-07T00:18:37;101264.59;;;20.52;100.00
3142;BME280;1581;51.568;6.998;2023-09-07T00:21:04;101268.41;;;20.51;100.00
3142;BME280;1581;51.568;6.998;2023-09-07T00:23:32;101275.44;;;20.52;100.00
3142;BME280;1581;51.568;6.998;2023-09-07T00:26:00;101275.69;;;20.50;100.00
3142;BME280;1581;51.568;6.998;2023-09-07T00:28:28;101272.66;;;20.47;100.00
3142;BME280;1581;51.568;6.998;2023-09-07T00:30:56;101271.84;;;20.46;100.00
3142;BME280;1581;51.568;6.998;2023-09-07T00:33:25;101279.38;;;20.44;100.00
3142;BME280;1581;51.568;6.998;2023-09-07T00:35:54;101276.75;;;20.49;100.00
3142;BME280;1581;51.568;6.998;2023-09-07T00:38:22;101279.38;;;20.44;100.00
3142;BME280;1581;51.568;6.998;2023-09-07T00:40:50;101274.19;;;20.43;100.00
3142;BME280;1581;51.568;6.998;2023-09-07T00:43:17;101272.44;;;20.37;100.00
3142;BME280;1581;51.568;6.998;2023-09-07T00:45:45;101270.19;;;20.34;100.00
3142;BME280;1581;51.568;6.998;2023-09-07T00:48:13;101268.34;;;20.34;100.00
3142;BME280;1581;51.568;6.998;2023-09-07T00:50:44;101277.72;;;20.32;100.00
3142;BME280;1581;51.568;6.998;2023-09-07T00:53:12;101271.16;;;20.28;100.00
3142;BME280;1581;51.568;6.998;2023-09-07T00:55:39;101268.59;;;20.21;100.00
3142;BME280;1581;51.568;6.998;2023-09-07T00:58:07;101265.41;;;20.24;100.00
3142;BME280;1581;51.568;6.998;2023-09-07T01:00:37;101265.53;;;20.18;100.00
3142;BME280;1581;51.568;6.998;2023-09-07T01:03:05;101266.84;;;20.15;100.00
3142;BME280;1581;51.568;6.998;2023-09-07T01:05:41;101256.50;;;20.12;100.00
3142;BME280;1581;51.568;6.998;2023-09-07T01:08:17;101255.81;;;20.05;100.00
3142;BME280;1581;51.568;6.998;2023-09-07T01:10:46;101248.75;;;20.04;100.00
3142;BME280;1581;51.568;6.998;2023-09-07T01:13:14;101249.31;;;20.06;100.00
3142;BME280;1581;51.568;6.998;2023-09-07T01:15:42;101252.38;;;19.98;100.00
3142;BME280;1581;51.568;6.998;2023-09-07T01:18:10;101245.78;;;19.94;100.00
3142;BME280;1581;51.568;6.998;2023-09-07T01:20:40;101243.28;;;19.93;100.00
3142;BME280;1581;51.568;6.998;2023-09-07T01:23:10;101250.00;;;19.90;100.00
3142;BME280;1581;51.568;6.998;2023-09-07T01:25:40;101241.78;;;19.86;100.00
3142;BME280;1581;51.568;6.998;2023-09-07T01:28:12;101242.34;;;19.88;100.00
3142;BME280;1581;51.568;6.998;2023-09-07T01:30:41;101249.06;;;19.85;100.00
3142;BME280;1581;51.568;6.998;2023-09-07T01:33:09;101236.50;;;19.79;100.00
3142;BME280;1581;51.568;6.998;2023-09-07T01:35:37;101244.03;;;19.77;100.00
3142;BME280;1581;51.568;6.998;2023-09-07T01:38:06;101246.72;;;19.77;100.00
3142;BME280;1581;51.568;6.998;2023-09-07T01:40:35;101239.69;;;19.76;100.00
3142;BME280;1581;51.568;6.998;2023-09-07T01:43:03;101240.72;;;19.75;100.00
3142;BME280;1581;51.568;6.998;2023-09-07T01:45:31;101237.91;;;19.82;100.00
3142;BME280;1581;51.568;6.998;2023-09-07T01:47:59;101233.81;;;19.79;100.00
3142;BME280;1581;51.568;6.998;2023-09-07T01:50:27;101230.75;;;19.76;100.00
3142;BME280;1581;51.568;6.998;2023-09-07T01:52:55;101235.78;;;19.72;100.00
3142;BME280;1581;51.568;6.998;2023-09-07T01:55:23;101239.06;;;19.74;100.00
3142;BME280;1581;51.568;6.998;2023-09-07T01:57:52;101229.91;;;19.75;100.00
3142;BME280;1581;51.568;6.998;2023-09-07T02:00:20;101236.50;;;19.79;100.00
3142;BME280;1581;51.568;6.998;2023-09-07T02:02:48;101239.31;;;19.84;100.00
3142;BME280;1581;51.568;6.998;2023-09-07T02:05:16;101235.78;;;19.84;100.00
3142;BME280;1581;51.568;6.998;2023-09-07T02:07:44;101242.63;;;19.75;100.00
3142;BME280;1581;51.568;6.998;2023-09-07T02:10:12;101236.25;;;19.81;100.00
3142;BME280;1581;51.568;6.998;2023-09-07T02:12:41;101234.25;;;19.76;100.00
3142;BME280;1581;51.568;6.998;2023-09-07T02:15:10;101232.63;;;19.75;100.00
3142;BME280;1581;51.568;6.998;2023-09-07T02:17:38;101229.31;;;19.73;100.00
3142;BME280;1581;51.568;6.998;2023-09-07T02:20:06;101232.63;;;19.75;100.00
3142;BME280;1581;51.568;6.998;2023-09-07T02:22:36;101226.72;;;19.67;100.00
3142;BME280;1581;51.568;6.998;2023-09-07T02:25:05;101226.16;;;19.65;100.00
3142;BME280;1581;51.568;6.998;2023-09-07T02:27:33;101222.28;;;19.61;100.00
3142;BME280;1581;51.568;6.998;2023-09-07T02:30:00;101233.09;;;19.61;100.00
3142;BME280;1581;51.568;6.998;2023-09-07T02:32:31;101218.16;;;19.58;100.00
3142;BME280;1581;51.568;6.998;2023-09-07T02:34:58;101228.63;;;19.55;100.00
3142;BME280;1581;51.568;6.998;2023-09-07T02:37:26;101225.78;;;19.50;100.00
3142;BME280;1581;51.568;6.998;2023-09-07T02:39:53;101223.34;;;19.48;100.00
3142;BME280;1581;51.568;6.998;2023-09-07T02:42:21;101232.75;;;19.46;100.00
3142;BME280;1581;51.568;6.998;2023-09-07T02:44:50;101229.91;;;19.41;100.00
3142;BME280;1581;51.568;6.998;2023-09-07T02:47:18;101236.25;;;19.35;100.00
3142;BME280;1581;51.568;6.998;2023-09-07T02:49:47;101231.06;;;19.33;100.00
3142;BME280;1581;51.568;6.998;2023-09-07T02:52:14;101234.38;;;19.35;100.00
3142;BME280;1581;51.568;6.998;2023-09-07T02:54:42;101228.25;;;19.28;100.00
3142;BME280;1581;51.568;6.998;2023-09-07T02:57:10;101231.41;;;19.25;100.00
3142;BME280;1581;51.568;6.998;2023-09-07T02:59:38;101229.78;;;19.24;100.00
3142;BME280;1581;51.568;6.998;2023-09-07T03:02:06;101229.78;;;19.24;100.00
3142;BME280;1581;51.568;6.998;2023-09-07T03:04:33;101223.66;;;19.17;100.00
3142;BME280;1581;51.568;6.998;2023-09-07T03:07:03;101229.16;;;19.11;100.00
3142;BME280;1581;51.568;6.998;2023-09-07T03:09:30;101232.06;;;19.09;100.00
3142;BME280;1581;51.568;6.998;2023-09-07T03:11:58;101228.53;;;19.09;100.00
3142;BME280;1581;51.568;6.998;2023-09-07T03:14:25;101229.81;;;19.06;100.00
3142;BME280;1581;51.568;6.998;2023-09-07T03:16:53;101219.03;;;19.06;100.00
3142;BME280;1581;51.568;6.998;2023-09-07T03:19:21;101225.47;;;19.05;100.00
3142;BME280;1581;51.568;6.998;2023-09-07T03:21:48;101222.47;;;19.13;100.00
3142;BME280;1581;51.568;6.998;2023-09-07T03:24:17;101216.84;;;19.15;100.00
3142;BME280;1581;51.568;6.998;2023-09-07T03:26:46;101227.31;;;19.11;100.00
3142;BME280;1581;51.568;6.998;2023-09-07T03:29:14;101214.94;;;19.15;100.00
3142;BME280;1581;51.568;6.998;2023-09-07T03:31:41;101224.47;;;19.18;100.00
3142;BME280;1581;51.568;6.998;2023-09-07T03:34:09;101215.78;;;19.16;100.00
3142;BME280;1581;51.568;6.998;2023-09-07T03:36:37;101217.91;;;19.14;100.00
3142;BME280;1581;51.568;6.998;2023-09-07T03:39:04;101220.59;;;19.14;100.00
3142;BME280;1581;51.568;6.998;2023-09-07T03:41:35;101222.00;;;19.16;100.00
3142;BME280;1581;51.568;6.998;2023-09-07T03:44:02;101226.34;;;19.17;100.00
3142;BME280;1581;51.568;6.998;2023-09-07T03:46:30;101228.22;;;19.17;100.00
3142;BME280;1581;51.568;6.998;2023-09-07T03:48:58;101237.63;;;19.14;100.00
3142;BME280;1581;51.568;6.998;2023-09-07T03:51:25;101237.63;;;19.14;100.00
3142;BME280;1581;51.568;6.998;2023-09-07T03:53:53;101242.44;;;19.12;100.00
3142;BME280;1581;51.568;6.998;2023-09-07T03:56:20;101230.44;;;19.08;100.00
3142;BME280;1581;51.568;6.998;2023-09-07T03:58:49;101237.34;;;19.04;100.00
3142;BME280;1581;51.568;6.998;2023-09-07T04:01:17;101234.03;;;19.02;100.00
3142;BME280;1581;51.568;6.998;2023-09-07T04:03:44;101231.66;;;18.95;100.00
3142;BME280;1581;51.568;6.998;2023-09-07T04:06:12;101233.56;;;18.94;100.00
3142;BME280;1581;51.568;6.998;2023-09-07T04:08:39;101238.22;;;18.87;100.00
3142;BME280;1581;51.568;6.998;2023-09-07T04:11:07;101245.75;;;18.85;100.00
3142;BME280;1581;51.568;6.998;2023-09-07T04:13:35;101245.97;;;18.84;100.00
3142;BME280;1581;51.568;6.998;2023-09-07T04:16:05;101239.16;;;18.81;100.00
3142;BME280;1581;51.568;6.998;2023-09-07T04:18:32;101236.69;;;18.80;100.00
3142;BME280;1581;51.568;6.998;2023-09-07T04:21:05;101237.13;;;18.77;100.00
3142;BME280;1581;51.568;6.998;2023-09-07T04:23:33;101244.78;;;18.80;100.00
3142;BME280;1581;51.568;6.998;2023-09-07T04:26:06;101237.75;;;18.79;100.00
3142;BME280;1581;51.568;6.998;2023-09-07T04:28:35;101234.28;;;18.72;100.00
3142;BME280;1581;51.568;6.998;2023-09-07T04:31:06;101236.19;;;18.71;100.00
3142;BME280;1581;51.568;6.998;2023-09-07T04:33:34;101239.81;;;18.65;100.00
3142;BME280;1581;51.568;6.998;2023-09-07T04:36:09;101238.59;;;18.61;100.00
3142;BME280;1581;51.568;6.998;2023-09-07T04:38:36;101232.00;;;18.57;100.00
3142;BME280;1581;51.568;6.998;2023-09-07T04:41:07;101240.44;;;18.49;100.00
3142;BME280;1581;51.568;6.998;2023-09-07T04:43:35;101237.72;;;18.49;100.00
3142;BME280;1581;51.568;6.998;2023-09-07T04:46:04;101236.75;;;18.44;100.00
3142;BME280;1581;51.568;6.998;2023-09-07T04:48:32;101227.97;;;18.48;100.00
3142;BME280;1581;51.568;6.998;2023-09-07T04:51:00;101231.34;;;18.44;100.00
3142;BME280;1581;51.568;6.998;2023-09-07T04:53:29;101238.41;;;18.45;100.00
3142;BME280;1581;51.568;6.998;2023-09-07T04:55:57;101238.66;;;18.43;100.00
3142;BME280;1581;51.568;6.998;2023-09-07T04:58:25;101237.97;;;18.48;100.00
3142;BME280;1581;51.568;6.998;2023-09-07T05:00:52;101245.63;;;18.51;100.00
3142;BME280;1581;51.568;6.998;2023-09-07T05:03:21;101247.84;;;18.54;100.00
3142;BME280;1581;51.568;6.998;2023-09-07T05:05:53;101251.00;;;18.51;100.00
3142;BME280;1581;51.568;6.998;2023-09-07T05:08:20;101251.22;;;18.49;100.00
3142;BME280;1581;51.568;6.998;2023-09-07T05:10:49;101245.69;;;18.44;100.00
3142;BME280;1581;51.568;6.998;2023-09-07T05:13:16;101239.69;;;18.42;100.00
3142;BME280;1581;51.568;6.998;2023-09-07T05:15:48;101243.00;;;18.44;100.00
3142;BME280;1581;51.568;6.998;2023-09-07T05:18:16;101246.66;;;18.50;100.00
3142;BME280;1581;51.568;6.998;2023-09-07T05:20:45;101245.63;;;18.51;100.00
3142;BME280;1581;51.568;6.998;2023-09-07T05:23:14;101254.53;;;18.51;100.00
3142;BME280;1581;51.568;6.998;2023-09-07T05:25:44;101259.22;;;18.56;100.00
3142;BME280;1581;51.568;6.998;2023-09-07T05:28:13;101256.53;;;18.56;100.00
3142;BME280;1581;51.568;6.998;2023-09-07T05:30:42;101252.63;;;18.52;100.00
3142;BME280;1581;51.568;6.998;2023-09-07T05:33:10;101255.34;;;18.52;100.00
3142;BME280;1581;51.568;6.998;2023-09-07T05:35:38;101257.22;;;18.51;100.00
3142;BME280;1581;51.568;6.998;2023-09-07T05:38:09;101263.22;;;18.53;100.00
3142;BME280;1581;51.568;6.998;2023-09-07T05:40:37;101264.41;;;18.57;100.00
3142;BME280;1581;51.568;6.998;2023-09-07T05:43:06;101263.94;;;18.60;100.00
3142;BME280;1581;51.568;6.998;2023-09-07T05:45:35;101267.09;;;18.57;100.00
3142;BME280;1581;51.568;6.998;2023-09-07T05:48:04;101271.81;;;18.62;100.00
3142;BME280;1581;51.568;6.998;2023-09-07T05:50:34;101267.84;;;18.64;100.00
3142;BME280;1581;51.568;6.998;2023-09-07T05:53:02;101264.22;;;18.70;100.00
3142;BME280;1581;51.568;6.998;2023-09-07T05:55:32;101265.44;;;18.74;100.00
3142;BME280;1581;51.568;6.998;2023-09-07T05:58:04;101261.72;;;18.87;100.00
3142;BME280;1581;51.568;6.998;2023-09-07T06:00:33;101267.38;;;18.97;100.00
3142;BME280;1581;51.568;6.998;2023-09-07T06:03:03;101265.28;;;18.99;100.00
3142;BME280;1581;51.568;6.998;2023-09-07T06:05:30;101268.25;;;19.08;100.00
3142;BME280;1581;51.568;6.998;2023-09-07T06:07:58;101275.00;;;19.17;100.00
3142;BME280;1581;51.568;6.998;2023-09-07T06:10:27;101277.34;;;19.25;100.00
3142;BME280;1581;51.568;6.998;2023-09-07T06:12:56;101275.75;;;19.36;100.00
3142;BME280;1581;51.568;6.998;2023-09-07T06:15:24;101271.66;;;19.45;100.00
3142;BME280;1581;51.568;6.998;2023-09-07T06:17:51;101280.72;;;19.50;100.00
3142;BME280;1581;51.568;6.998;2023-09-07T06:20:20;101284.72;;;19.59;100.00
3142;BME280;1581;51.568;6.998;2023-09-07T06:22:47;101282.72;;;19.66;100.00
3142;BME280;1581;51.568;6.998;2023-09-07T06:25:16;101288.81;;;19.73;100.00
3142;BME280;1581;51.568;6.998;2023-09-07T06:27:43;101295.50;;;19.82;100.00
3142;BME280;1581;51.568;6.998;2023-09-07T06:30:12;101294.00;;;19.86;100.00
3142;BME280;1581;51.568;6.998;2023-09-07T06:32:40;101284.03;;;19.98;100.00
3142;BME280;1581;51.568;6.998;2023-09-07T06:35:08;101286.63;;;20.04;100.00
3142;BME280;1581;51.568;6.998;2023-09-07T06:37:36;101297.88;;;20.13;100.00
3142;BME280;1581;51.568;6.998;2023-09-07T06:40:08;101289.06;;;20.17;100.00
3142;BME280;1581;51.568;6.998;2023-09-07T06:42:37;101284.03;;;20.21;100.00
3142;BME280;1581;51.568;6.998;2023-09-07T06:45:06;101297.88;;;20.36;100.00
3142;BME280;1581;51.568;6.998;2023-09-07T06:47:35;101306.19;;;20.46;100.00
3142;BME280;1581;51.568;6.998;2023-09-07T06:50:04;101297.59;;;20.49;100.00
3142;BME280;1581;51.568;6.998;2023-09-07T06:52:32;101297.47;;;20.55;100.00
3142;BME280;1581;51.568;6.998;2023-09-07T06:54:59;101298.97;;;20.63;100.00
3142;BME280;1581;51.568;6.998;2023-09-07T06:57:27;101303.53;;;20.74;100.00
3142;BME280;1581;51.568;6.998;2023-09-07T06:59:55;101305.41;;;20.84;100.00
3142;BME280;1581;51.568;6.998;2023-09-07T07:02:22;101315.75;;;20.87;100.00
3142;BME280;1581;51.568;6.998;2023-09-07T07:04:51;101310.19;;;20.94;100.00
3142;BME280;1581;51.568;6.998;2023-09-07T07:07:19;101314.88;;;20.98;100.00
3142;BME280;1581;51.568;6.998;2023-09-07T07:09:47;101317.78;;;21.08;100.00
3142;BME280;1581;51.568;6.998;2023-09-07T07:12:14;101310.66;;;21.19;100.00
3142;BME280;1581;51.568;6.998;2023-09-07T07:14:42;101312.03;;;21.21;100.00
3142;BME280;1581;51.568;6.998;2023-09-07T07:17:09;101314.38;;;21.29;100.00
3142;BME280;1581;51.568;6.998;2023-09-07T07:19:37;101311.16;;;21.32;100.00
3142;BME280;1581;51.568;6.998;2023-09-07T07:22:06;101309.63;;;21.36;100.00
3142;BME280;1581;51.568;6.998;2023-09-07T07:24:35;101310.06;;;21.45;100.00
3142;BME280;1581;51.568;6.998;2023-09-07T07:27:03;101303.38;;;21.52;100.00
3142;BME280;1581;51.568;6.998;2023-09-07T07:29:30;101308.44;;;21.60;100.00
3142;BME280;1581;51.568;6.998;2023-09-07T07:31:58;101301.28;;;21.70;100.00
3142;BME280;1581;51.568;6.998;2023-09-07T07:34:25;101307.94;;;21.79;100.00
3142;BME280;1581;51.568;6.998;2023-09-07T07:36:53;101315.66;;;21.87;100.00
3142;BME280;1581;51.568;6.998;2023-09-07T07:39:22;101313.09;;;21.97;100.00
3142;BME280;1581;51.568;6.998;2023-09-07T07:41:50;101308.56;;;22.03;100.00
3142;BME280;1581;51.568;6.998;2023-09-07T07:44:18;101315.19;;;22.12;100.00
3142;BME280;1581;51.568;6.998;2023-09-07T07:46:48;101316.66;;;22.19;100.00
3142;BME280;1581;51.568;6.998;2023-09-07T07:49:15;101317.31;;;22.26;100.00
3142;BME280;1581;51.568;6.998;2023-09-07T07:51:43;101313.88;;;22.31;100.00
3142;BME280;1581;51.568;6.998;2023-09-07T07:54:11;101313.44;;;22.39;100.00
3142;BME280;1581;51.568;6.998;2023-09-07T07:56:40;101320.31;;;22.46;100.00
3142;BME280;1581;51.568;6.998;2023-09-07T07:59:08;101308.47;;;22.52;100.00
3142;BME280;1581;51.568;6.998;2023-09-07T08:01:36;101314.22;;;22.56;100.00
3142;BME280;1581;51.568;6.998;2023-09-07T08:04:04;101316.16;;;22.60;100.00
3142;BME280;1581;51.568;6.998;2023-09-07T08:06:33;101313.25;;;22.66;100.00
3142;BME280;1581;51.568;6.998;2023-09-07T08:09:00;101323.41;;;22.76;100.00
3142;BME280;1581;51.568;6.998;2023-09-07T08:11:29;101322.16;;;22.83;100.00
3142;BME280;1581;51.568;6.998;2023-09-07T08:13:58;101323.03;;;22.89;100.00
3142;BME280;1581;51.568;6.998;2023-09-07T08:16:26;101319.31;;;22.95;100.00
3142;BME280;1581;51.568;6.998;2023-09-07T08:18:58;101317.78;;;23.04;100.00
3142;BME280;1581;51.568;6.998;2023-09-07T08:21:26;101317.53;;;23.05;100.00
3142;BME280;1581;51.568;6.998;2023-09-07T08:23:53;101307.59;;;23.16;100.00
3142;BME280;1581;51.568;6.998;2023-09-07T08:26:22;101308.25;;;23.28;100.00
3142;BME280;1581;51.568;6.998;2023-09-07T08:28:49;101307.81;;;23.36;100.00
3142;BME280;1581;51.568;6.998;2023-09-07T08:31:18;101313.28;;;23.41;100.00
3142;BME280;1581;51.568;6.998;2023-09-07T08:33:48;101303.81;;;23.48;100.00
3142;BME280;1581;51.568;6.998;2023-09-07T08:36:16;101309.66;;;23.61;100.00
3142;BME280;1581;51.568;6.998;2023-09-07T08:38:44;101305.38;;;23.70;100.00
3142;BME280;1581;51.568;6.998;2023-09-07T08:41:13;101310.09;;;23.80;100.00
3142;BME280;1581;51.568;6.998;2023-09-07T08:43:45;101310.72;;;23.92;100.00
3142;BME280;1581;51.568;6.998;2023-09-07T08:46:15;101307.25;;;24.01;99.21
3142;BME280;1581;51.568;6.998;2023-09-07T08:48:48;101308.91;;;24.07;98.56
3142;BME280;1581;51.568;6.998;2023-09-07T08:51:19;101302.16;;;24.15;99.56
3142;BME280;1581;51.568;6.998;2023-09-07T08:53:46;101312.31;;;24.24;97.58
3142;BME280;1581;51.568;6.998;2023-09-07T08:56:15;101300.66;;;24.38;97.37
3142;BME280;1581;51.568;6.998;2023-09-07T08:58:44;101298.56;;;24.50;96.66
3142;BME280;1581;51.568;6.998;2023-09-07T09:01:14;101298.03;;;24.53;96.97
3142;BME280;1581;51.568;6.998;2023-09-07T09:03:42;101297.25;;;24.63;97.80
3142;BME280;1581;51.568;6.998;2023-09-07T09:06:12;101304.63;;;24.72;98.12
3142;BME280;1581;51.568;6.998;2023-09-07T09:08:44;101302.50;;;24.84;94.17
3142;BME280;1581;51.568;6.998;2023-09-07T09:11:12;101307.44;;;24.97;93.86
3142;BME280;1581;51.568;6.998;2023-09-07T09:13:40;101305.56;;;25.08;94.57
3142;BME280;1581;51.568;6.998;2023-09-07T09:16:09;101306.44;;;25.23;94.79
3142;BME280;1581;51.568;6.998;2023-09-07T09:18:37;101306.72;;;25.31;94.11
3142;BME280;1581;51.568;6.998;2023-09-07T09:21:05;101302.38;;;25.40;93.02
3142;BME280;1581;51.568;6.998;2023-09-07T09:23:36;101306.47;;;25.48;92.91
3142;BME280;1581;51.568;6.998;2023-09-07T09:26:04;101304.00;;;25.66;92.80
3142;BME280;1581;51.568;6.998;2023-09-07T09:28:32;101303.19;;;25.76;91.94
3142;BME280;1581;51.568;6.998;2023-09-07T09:31:02;101290.09;;;25.88;90.67
3142;BME280;1581;51.568;6.998;2023-09-07T09:33:31;101294.72;;;25.92;90.21
3142;BME280;1581;51.568;6.998;2023-09-07T09:35:59;101302.63;;;26.04;88.29
3142;BME280;1581;51.568;6.998;2023-09-07T09:38:28;101294.13;;;26.20;88.87
3142;BME280;1581;51.568;6.998;2023-09-07T09:41:00;101291.06;;;26.31;89.88
3142;BME280;1581;51.568;6.998;2023-09-07T09:43:29;101286.69;;;26.40;88.58
3142;BME280;1581;51.568;6.998;2023-09-07T09:45:57;101288.81;;;26.58;88.94
3142;BME280;1581;51.568;6.998;2023-09-07T09:48:28;101289.91;;;26.57;86.27
3142;BME280;1581;51.568;6.998;2023-09-07T09:50:56;101288.47;;;26.70;85.42
3142;BME280;1581;51.568;6.998;2023-09-07T09:53:24;101282.72;;;26.76;87.51
3142;BME280;1581;51.568;6.998;2023-09-07T09:55:53;101284.00;;;26.89;86.38
3142;BME280;1581;51.568;6.998;2023-09-07T09:58:22;101282.03;;;27.04;82.31
3142;BME280;1581;51.568;6.998;2023-09-07T10:00:54;101286.03;;;27.16;81.02
3142;BME280;1581;51.568;6.998;2023-09-07T10:03:27;101279.16;;;27.24;80.75
3142;BME280;1581;51.568;6.998;2023-09-07T10:06:07;101282.56;;;27.44;79.01
3142;BME280;1581;51.568;6.998;2023-09-07T10:08:35;101269.28;;;27.56;78.85
3142;BME280;1581;51.568;6.998;2023-09-07T10:11:08;101284.56;;;27.67;78.11
3142;BME280;1581;51.568;6.998;2023-09-07T10:13:38;101275.16;;;27.78;78.15
3142;BME280;1581;51.568;6.998;2023-09-07T10:16:06;101267.91;;;27.92;74.40
3142;BME280;1581;51.568;6.998;2023-09-07T10:18:35;101268.31;;;28.04;74.40
3142;BME280;1581;51.568;6.998;2023-09-07T10:21:04;101267.38;;;28.13;73.82
3142;BME280;1581;51.568;6.998;2023-09-07T10:23:41;101264.84;;;28.22;71.89
3142;BME280;1581;51.568;6.998;2023-09-07T10:26:14;101268.06;;;28.29;68.58
3142;BME280;1581;51.568;6.998;2023-09-07T10:28:59;101273.94;;;28.41;69.71
3142;BME280;1581;51.568;6.998;2023-09-07T10:31:29;101278.47;;;28.50;69.22
3142;BME280;1581;51.568;6.998;2023-09-07T10:34:08;101264.41;;;28.57;67.42
3142;BME280;1581;51.568;6.998;2023-09-07T10:36:37;101256.88;;;28.67;70.40
3142;BME280;1581;51.568;6.998;2023-09-07T10:39:05;101267.72;;;28.77;69.21
3142;BME280;1581;51.568;6.998;2023-09-07T10:41:41;101260.81;;;28.80;71.87
3142;BME280;1581;51.568;6.998;2023-09-07T10:44:10;101258.88;;;28.80;71.46
3142;BME280;1581;51.568;6.998;2023-09-07T10:46:38;101256.41;;;28.84;69.12
3142;BME280;1581;51.568;6.998;2023-09-07T10:49:08;101252.53;;;28.85;68.28
3142;BME280;1581;51.568;6.998;2023-09-07T10:51:46;101247.50;;;28.91;69.36
3142;BME280;1581;51.568;6.998;2023-09-07T10:54:15;101258.09;;;28.98;70.31
3142;BME280;1581;51.568;6.998;2023-09-07T10:56:50;101254.16;;;29.04;69.26
3142;BME280;1581;51.568;6.998;2023-09-07T10:59:20;101257.28;;;29.16;70.27
3142;BME280;1581;51.568;6.998;2023-09-07T11:01:47;101260.22;;;29.19;69.08
3142;BME280;1581;51.568;6.998;2023-09-07T11:04:16;101256.53;;;29.29;67.19
3142;BME280;1581;51.568;6.998;2023-09-07T11:06:48;101258.03;;;29.40;70.57
3142;BME280;1581;51.568;6.998;2023-09-07T11:09:23;101256.06;;;29.40;68.14
3142;BME280;1581;51.568;6.998;2023-09-07T11:11:54;101246.75;;;29.55;64.55
3142;BME280;1581;51.568;6.998;2023-09-07T11:14:29;101251.03;;;29.61;65.11
3142;BME280;1581;51.568;6.998;2023-09-07T11:17:03;101251.91;;;29.74;65.54
3142;BME280;1581;51.568;6.998;2023-09-07T11:19:38;101250.91;;;29.84;62.98
3142;BME280;1581;51.568;6.998;2023-09-07T11:22:10;101246.94;;;29.90;62.16
3142;BME280;1581;51.568;6.998;2023-09-07T11:24:38;101244.94;;;29.95;61.71
3142;BME280;1581;51.568;6.998;2023-09-07T11:27:09;101240.75;;;29.98;62.30
3142;BME280;1581;51.568;6.998;2023-09-07T11:29:39;101236.50;;;30.05;63.76
3142;BME280;1581;51.568;6.998;2023-09-07T11:32:09;101231.31;;;30.17;62.47
3142;BME280;1581;51.568;6.998;2023-09-07T11:34:49;101220.19;;;30.22;62.30
3142;BME280;1581;51.568;6.998;2023-09-07T11:37:25;101226.00;;;30.34;61.96
3142;BME280;1581;51.568;6.998;2023-09-07T11:39:53;101216.31;;;30.50;64.47
3142;BME280;1581;51.568;6.998;2023-09-07T11:42:20;101221.72;;;30.55;60.20
3142;BME280;1581;51.568;6.998;2023-09-07T11:44:50;101219.16;;;30.59;58.35
3142;BME280;1581;51.568;6.998;2023-09-07T11:47:17;101216.50;;;30.67;58.00
3142;BME280;1581;51.568;6.998;2023-09-07T11:49:45;101224.81;;;30.75;58.02
3142;BME280;1581;51.568;6.998;2023-09-07T11:52:12;101228.97;;;30.86;58.27
3142;BME280;1581;51.568;6.998;2023-09-07T11:54:40;101227.22;;;30.90;58.28
3142;BME280;1581;51.568;6.998;2023-09-07T11:57:08;101228.88;;;30.91;57.03
3142;BME280;1581;51.568;6.998;2023-09-07T11:59:35;101225.78;;;30.93;57.98
3142;BME280;1581;51.568;6.998;2023-09-07T12:02:04;101225.50;;;30.94;56.28
3142;BME280;1581;51.568;6.998;2023-09-07T12:04:32;101227.31;;;30.99;56.58
3142;BME280;1581;51.568;6.998;2023-09-07T12:07:03;101219.47;;;31.06;55.75
3142;BME280;1581;51.568;6.998;2023-09-07T12:09:30;101217.91;;;31.00;55.62
3142;BME280;1581;51.568;6.998;2023-09-07T12:11:58;101214.47;;;31.08;55.28
3142;BME280;1581;51.568;6.998;2023-09-07T12:14:25;101209.06;;;31.25;55.34
3142;BME280;1581;51.568;6.998;2023-09-07T12:16:53;101211.63;;;31.43;57.66
3142;BME280;1581;51.568;6.998;2023-09-07T12:19:22;101211.31;;;31.45;56.73
3142;BME280;1581;51.568;6.998;2023-09-07T12:21:51;101204.44;;;31.56;58.94
3142;BME280;1581;51.568;6.998;2023-09-07T12:24:19;101204.00;;;31.62;58.57
3142;BME280;1581;51.568;6.998;2023-09-07T12:26:46;101191.34;;;31.69;57.71
3142;BME280;1581;51.568;6.998;2023-09-07T12:29:16;101195.00;;;31.78;54.88
3142;BME280;1581;51.568;6.998;2023-09-07T12:31:48;101196.97;;;31.86;55.08
3142;BME280;1581;51.568;6.998;2023-09-07T12:34:20;101191.16;;;31.96;54.97
3142;BME280;1581;51.568;6.998;2023-09-07T12:36:53;101190.75;;;32.11;55.81
3142;BME280;1581;51.568;6.998;2023-09-07T12:39:24;101190.31;;;32.26;53.51
3142;BME280;1581;51.568;6.998;2023-09-07T12:41:51;101191.47;;;32.34;52.89
3142;BME280;1581;51.568;6.998;2023-09-07T12:44:19;101188.72;;;32.42;50.00
3142;BME280;1581;51.568;6.998;2023-09-07T12:46:47;101183.84;;;32.47;48.33
3142;BME280;1581;51.568;6.998;2023-09-07T12:49:14;101191.50;;;32.50;49.09
3142;BME280;1581;51.568;6.998;2023-09-07T12:51:42;101184.81;;;32.43;48.53
3142;BME280;1581;51.568;6.998;2023-09-07T12:54:11;101188.13;;;32.62;48.03
3142;BME280;1581;51.568;6.998;2023-09-07T12:56:42;101186.00;;;32.84;49.23
3142;BME280;1581;51.568;6.998;2023-09-07T12:59:14;101181.97;;;32.99;48.33
3142;BME280;1581;51.568;6.998;2023-09-07T13:01:42;101179.69;;;33.09;48.08
3142;BME280;1581;51.568;6.998;2023-09-07T13:04:09;101173.19;;;33.22;48.05
3142;BME280;1581;51.568;6.998;2023-09-07T13:06:38;101169.75;;;33.34;46.35
3142;BME280;1581;51.568;6.998;2023-09-07T13:09:08;101161.94;;;33.44;45.80
3142;BME280;1581;51.568;6.998;2023-09-07T13:11:40;101171.16;;;33.48;46.77
3142;BME280;1581;51.568;6.998;2023-09-07T13:14:12;101169.19;;;33.65;47.47